Time;durP1;ratioP1;P1;durP2;ratioP2;P2;SDS_P1;SDS_P2;PMS_P1;PMS_P2;Temp;Humidity;BMP_temperature;BMP_pressure;BME280_temperature;BME280_humidity;BME280_pressure;Samples;Min_cycle;Max_cycle;Signal;HPM_P1;HPM_P2
2022/07/05 00:01:26;;;;;;;;;;;;;;;;;;4922562;28;20686;-64
2022/07/05 00:03:53;;;;;;;;;;;;;;;;;;4917994;28;19922;-64
2022/07/05 00:06:22;;;;;;;;;;;;;;;;;;4922857;28;20943;-64
2022/07/05 00:08:53;;;;;;;;;;;;;;;;;;4923098;28;20359;-64
2022/07/05 00:11:18;;;;;;;;;;;;;;;;;;4924077;28;19923;-64
2022/07/05 00:13:46;;;;;;;;;;;;;;;;;;4920708;28;20005;-64
2022/07/05 00:16:14;;;;;;;;;;;;;;;;;;4921696;28;20641;-63
2022/07/05 00:18:44;;;;;;;;;;;;;;;;;;4914999;28;20443;-64
2022/07/05 00:21:09;;;;;;;;;;;;;;;;;;4901139;29;20461;-65
2022/07/05 00:23:37;;;;;;;;;;;;;;;;;;4902100;29;20036;-65
2022/07/05 00:26:03;;;;;;;;;;;;;;;;;;4920173;28;19969;-64
2022/07/05 00:28:28;;;;;;;;;;;;;;;;;;4921051;28;20016;-64
2022/07/05 00:30:54;;;;;;;;;;;;;;;;;;4920400;28;19985;-65
2022/07/05 00:33:19;;;;;;;;;;;;;;;;;;4917392;28;19926;-63
2022/07/05 00:35:47;;;;;;;;;;;;;;;;;;4922700;28;20009;-63
2022/07/05 00:38:12;;;;;;;;;;;;;;;;;;4920928;28;20334;-63
2022/07/05 00:40:38;;;;;;;;;;;;;;;;;;4918710;28;19933;-64
2022/07/05 00:43:05;;;;;;;;;;;;;;;;;;4920316;28;20013;-64
2022/07/05 00:45:31;;;;;;;;;;;;;;;;;;4920090;28;19936;-64
2022/07/05 00:47:58;;;;;;;;;;;;;;;;;;4916363;28;20001;-64
2022/07/05 00:50:26;;;;;;;;;;;;;;;;;;4920903;28;19929;-65
2022/07/05 00:52:55;;;;;;;;;;;;;;;;;;4923838;28;19923;-65
2022/07/05 00:55:21;;;;;;;;;;;;;;;;;;4924041;28;20017;-65
2022/07/05 00:57:46;;;;;;;;;;;;;;;;;;4919015;28;20402;-64
2022/07/05 01:00:11;;;;;;;;;;;;;;;;;;4922859;28;19934;-64
2022/07/05 01:02:39;;;;;;;;;;;;;;;;;;4916179;28;20677;-64
2022/07/05 01:05:05;;;;;;;;;;;;;;;;;;4923775;28;19922;-64
2022/07/05 01:07:33;;;;;;;;;;;;;;;;;;4902596;29;19926;-65
2022/07/05 01:10:03;;;;;;;;;;;;;;;;;;4903788;29;20024;-64
2022/07/05 01:12:28;;;;;;;;;;;;;;;;;;4917504;28;20017;-64
2022/07/05 01:14:58;;;;;;;;;;;;;;;;;;4918734;28;20546;-65
2022/07/05 01:17:24;;;;;;;;;;;;;;;;;;4914473;28;19941;-64
2022/07/05 01:19:51;;;;;;;;;;;;;;;;;;4918233;28;19923;-64
2022/07/05 01:22:18;;;;;;;;;;;;;;;;;;4920218;28;20005;-64
2022/07/05 01:24:43;;;;;;;;;;;;;;;;;;4917598;28;20404;-64
2022/07/05 01:27:11;;;;;;;;;;;;;;;;;;4916916;28;19922;-64
2022/07/05 01:29:36;;;;;;;;;;;;;;;;;;4919557;28;19949;-63
2022/07/05 01:32:02;;;;;;;;;;;;;;;;;;4901903;28;20005;-63
2022/07/05 01:34:29;;;;;;;;;;;;;;;;;;4919540;28;19930;-63
2022/07/05 01:36:55;;;;;;;;;;;;;;;;;;4921766;28;20029;-63
2022/07/05 01:39:23;;;;;;;;;;;;;;;;;;4902232;28;21868;-63
2022/07/05 01:41:48;;;;;;;;;;;;;;;;;;4921346;28;20052;-65
2022/07/05 01:44:15;;;;;;;;;;;;;;;;;;4921437;28;20038;-63
2022/07/05 01:46:41;;;;;;;;;;;;;;;;;;4922085;28;19973;-63
2022/07/05 01:49:06;;;;;;;;;;;;;;;;;;4920622;28;21109;-63
2022/07/05 01:51:31;;;;;;;;;;;;;;;;;;4919697;28;19933;-63
2022/07/05 01:53:57;;;;;;;;;;;;;;;;;;4921667;28;20012;-64
2022/07/05 01:56:22;;;;;;;;;;;;;;;;;;4918420;28;20017;-63
2022/07/05 01:58:50;;;;;;;;;;;;;;;;;;4918279;28;19922;-63
2022/07/05 02:01:18;;;;;;;;;;;;;;;;;;4912333;28;20705;-64
2022/07/05 02:03:44;;;;;;;;;;;;;;;;;;4919715;28;19933;-64
2022/07/05 02:06:11;;;;;;;;;;;;;;;;;;4918836;28;19919;-65
2022/07/05 02:08:38;;;;;;;;;;;;;;;;;;4911480;28;20457;-64
2022/07/05 02:11:06;;;;;;;;;;;;;;;;;;4912320;28;20063;-64
2022/07/05 02:13:32;;;;;;;;;;;;;;;;;;4918952;28;19933;-64
2022/07/05 02:15:57;;;;;;;;;;;;;;;;;;4912190;28;19954;-64
2022/07/05 02:18:25;;;;;;;;;;;;;;;;;;4912055;28;20429;-64
2022/07/05 02:20:50;;;;;;;;;;;;;;;;;;4915435;28;19922;-65
2022/07/05 02:23:15;;;;;;;;;;;;;;;;;;4916032;28;19938;-64
2022/07/05 02:25:46;;;;;;;;;;;;;;;;;;4913749;28;20920;-64
2022/07/05 02:28:13;;;;;;;;;;;;;;;;;;4895140;28;20037;-65
2022/07/05 02:30:39;;;;;;;;;;;;;;;;;;4913037;28;19930;-65
2022/07/05 02:33:07;;;;;;;;;;;;;;;;;;4912264;28;20017;-64
2022/07/05 02:35:37;;;;;;;;;;;;;;;;;;4908435;28;19931;-64
2022/07/05 02:38:05;;;;;;;;;;;;;;;;;;4914885;28;20710;-63
2022/07/05 02:40:30;;;;;;;;;;;;;;;;;;4910042;28;19922;-64
2022/07/05 02:42:55;;;;;;;;;;;;;;;;;;4915394;28;21021;-63
2022/07/05 02:45:23;;;;;;;;;;;;;;;;;;4910073;28;19938;-63
2022/07/05 02:47:49;;;;;;;;;;;;;;;;;;4911920;28;20029;-63
2022/07/05 02:50:18;;;;;;;;;;;;;;;;;;4915123;28;20210;-64
2022/07/05 02:52:46;;;;;;;;;;;;;;;;;;4897641;28;20532;-63
2022/07/05 02:55:14;;;;;;;;;;;;;;;;;;4913925;28;19953;-63
2022/07/05 02:57:39;;;;;;;;;;;;;;;;;;4911088;28;20377;-64
2022/07/05 03:00:06;;;;;;;;;;;;;;;;;;4906735;28;19922;-64
2022/07/05 03:02:31;;;;;;;;;;;;;;;;;;4896403;29;20353;-64
2022/07/05 03:04:57;;;;;;;;;;;;;;;;;;4920430;28;21257;-64
2022/07/05 03:07:23;;;;;;;;;;;;;;;;;;4915667;28;20777;-64
2022/07/05 03:09:48;;;;;;;;;;;;;;;;;;4920071;28;19927;-64
2022/07/05 03:12:16;;;;;;;;;;;;;;;;;;4920219;28;20096;-64
2022/07/05 03:14:41;;;;;;;;;;;;;;;;;;4919459;28;19933;-63
2022/07/05 03:17:06;;;;;;;;;;;;;;;;;;4900070;29;19923;-64
2022/07/05 03:19:31;;;;;;;;;;;;;;;;;;4920588;28;19972;-64
2022/07/05 03:21:57;;;;;;;;;;;;;;;;;;4915766;28;19918;-64
2022/07/05 03:24:24;;;;;;;;;;;;;;;;;;4919653;28;19922;-65
2022/07/05 03:26:50;;;;;;;;;;;;;;;;;;4916039;28;19922;-64
2022/07/05 03:29:15;;;;;;;;;;;;;;;;;;4918320;28;20696;-63
2022/07/05 03:31:43;;;;;;;;;;;;;;;;;;4902999;29;19926;-62
2022/07/05 03:34:08;;;;;;;;;;;;;;;;;;4917316;28;19957;-63
2022/07/05 03:36:33;;;;;;;;;;;;;;;;;;4920609;28;20868;-62
2022/07/05 03:38:59;;;;;;;;;;;;;;;;;;4920306;29;19926;-63
2022/07/05 03:41:36;;;;;;;;;;;;;;;;;;4913990;28;19919;-64
2022/07/05 03:44:02;;;;;;;;;;;;;;;;;;4920200;28;20717;-63
2022/07/05 03:46:27;;;;;;;;;;;;;;;;;;4917439;28;19919;-64
2022/07/05 03:48:52;;;;;;;;;;;;;;;;;;4922979;28;20013;-63
2022/07/05 03:54:48;;;;;;;;;;;;;;;;;;4923504;28;20112;-64
2022/07/05 03:57:16;;;;;;;;;;;;;;;;;;4923627;28;19998;-63
2022/07/05 03:59:43;;;;;;;;;;;;;;;;;;4922288;28;21285;-63
2022/07/05 04:02:10;;;;;;;;;;;;;;;;;;4921024;28;20004;-65
2022/07/05 04:04:35;;;;;;;;;;;;;;;;;;4921252;28;19937;-64
2022/07/05 04:07:03;;;;;;;;;;;;;;;;;;4922958;28;20428;-64
2022/07/05 04:09:31;;;;;;;;;;;;;;;;;;4905835;28;20382;-64
2022/07/05 04:15:15;;;;;;;;;;;;;;;;;;4924165;28;20996;-63
2022/07/05 04:20:56;;;;;;;;;;;;;;;;;;4924123;28;19953;-63
2022/07/05 04:23:31;;;;;;;;;;;;;;;;;;4922325;28;19918;-63
2022/07/05 04:29:16;;;;;;;;;;;;;;;;;;4915382;28;19929;-64
2022/07/05 04:31:41;;;;;;;;;;;;;;;;;;4919697;28;19938;-64
2022/07/05 04:34:12;;;;;;;;;;;;;;;;;;4920031;28;19926;-63
2022/07/05 04:36:40;;;;;;;;;;;;;;;;;;4917047;28;19927;-66
2022/07/05 04:39:14;;;;;;;;;;;;;;;;;;4928931;28;19930;-64
2022/07/05 04:41:43;;;;;;;;;;;;;;;;;;4928423;28;20010;-64
2022/07/05 04:44:08;;;;;;;;;;;;;;;;;;4922911;28;20541;-64
2022/07/05 04:46:33;;;;;;;;;;;;;;;;;;4920843;28;19929;-63
2022/07/05 04:51:49;;;;;;;;;;;;;;;;;;4923672;28;20160;-63
2022/07/05 04:54:17;;;;;;;;;;;;;;;;;;4926157;28;19922;-63
2022/07/05 04:56:42;;;;;;;;;;;;;;;;;;4924867;28;20354;-64
2022/07/05 04:59:12;;;;;;;;;;;;;;;;;;4917237;28;19954;-62
2022/07/05 05:01:37;;;;;;;;;;;;;;;;;;4907868;29;20009;-62
2022/07/05 05:04:03;;;;;;;;;;;;;;;;;;4923225;28;19926;-61
2022/07/05 05:06:30;;;;;;;;;;;;;;;;;;4927299;28;19919;-63
2022/07/05 05:08:57;;;;;;;;;;;;;;;;;;4927221;28;20029;-64
2022/07/05 05:11:23;;;;;;;;;;;;;;;;;;4925887;28;19930;-65
2022/07/05 05:13:48;;;;;;;;;;;;;;;;;;4921671;28;19923;-64
2022/07/05 05:16:16;;;;;;;;;;;;;;;;;;4920896;28;19970;-65
2022/07/05 05:22:00;;;;;;;;;;;;;;;;;;4921975;28;19996;-65
2022/07/05 05:24:28;;;;;;;;;;;;;;;;;;4924856;28;19919;-63
2022/07/05 05:26:53;;;;;;;;;;;;;;;;;;4919017;28;19929;-65
2022/07/05 05:29:21;;;;;;;;;;;;;;;;;;4916413;28;20536;-65
2022/07/05 05:38:21;;;;;;;;;;;;;;;;;;4912996;28;20425;-64
2022/07/05 05:40:49;;;;;;;;;;;;;;;;;;4916225;28;19918;-63
2022/07/05 05:43:17;;;;;;;;;;;;;;;;;;4898452;28;19919;-64
2022/07/05 05:48:59;;;;;;;;;;;;;;;;;;4913054;28;19929;-64
2022/07/05 05:51:28;;;;;;;;;;;;;;;;;;4916967;28;19919;-63
2022/07/05 05:57:09;;;;;;;;;;;;;;;;;;4920897;28;20890;-61
2022/07/05 05:59:37;;;;;;;;;;;;;;;;;;4918539;28;20069;-64
2022/07/05 06:02:02;;;;;;;;;;;;;;;;;;4903825;29;20448;-64
2022/07/05 06:04:27;;;;;;;;;;;;;;;;;;4913238;28;20021;-63
2022/07/05 06:06:55;;;;;;;;;;;;;;;;;;4915400;28;20009;-63
2022/07/05 06:09:21;;;;;;;;;;;;;;;;;;4919901;28;19918;-64
2022/07/05 06:11:48;;;;;;;;;;;;;;;;;;4904705;29;20013;-64
2022/07/05 06:14:16;;;;;;;;;;;;;;;;;;4916835;28;19926;-67
2022/07/05 06:16:41;;;;;;;;;;;;;;;;;;4916203;28;20530;-64
2022/07/05 06:19:07;;;;;;;;;;;;;;;;;;4914722;28;19934;-65
2022/07/05 06:21:32;;;;;;;;;;;;;;;;;;4907863;28;19918;-64
2022/07/05 06:24:01;;;;;;;;;;;;;;;;;;4915540;28;19927;-63
2022/07/05 06:26:26;;;;;;;;;;;;;;;;;;4898875;29;20903;-63
2022/07/05 06:31:42;;;;;;;;;;;;;;;;;;4920098;28;20486;-63
2022/07/05 06:34:16;;;;;;;;;;;;;;;;;;4916887;28;19934;-63
2022/07/05 06:36:42;;;;;;;;;;;;;;;;;;4912842;28;19929;-64
2022/07/05 06:39:07;;;;;;;;;;;;;;;;;;4916120;28;19922;-65
2022/07/05 06:41:35;;;;;;;;;;;;;;;;;;4918648;28;19923;-64
2022/07/05 06:44:06;;;;;;;;;;;;;;;;;;4922046;28;20034;-64
2022/07/05 06:46:31;;;;;;;;;;;;;;;;;;4903972;29;19954;-64
2022/07/05 06:48:59;;;;;;;;;;;;;;;;;;4921307;28;21927;-68
2022/07/05 06:54:40;;;;;;;;;;;;;;;;;;4922636;28;19932;-64
2022/07/05 06:57:21;;;;;;;;;;;;;;;;;;4927338;29;19923;-65
2022/07/05 07:00:02;;;;;;;;;;;;;;;;;;4924930;28;19919;-63
2022/07/05 07:02:28;;;;;;;;;;;;;;;;;;4924396;28;20021;-63
2022/07/05 07:10:25;;;;;;;;;;;;;;;;;;4926073;28;19918;-64
2022/07/05 07:15:40;;;;;;;;;;;;;;;;;;4923141;29;19923;-74
2022/07/05 07:18:06;;;;;;;;;;;;;;;;;;4923062;28;20899;-65
2022/07/05 07:20:52;;;;;;;;;;;;;;;;;;4918278;28;20859;-64
2022/07/05 07:23:19;;;;;;;;;;;;;;;;;;4925759;28;19926;-66
2022/07/05 07:25:44;;;;;;;;;;;;;;;;;;4921150;28;19926;-64
2022/07/05 07:28:12;;;;;;;;;;;;;;;;;;4927827;28;19922;-66
2022/07/05 07:30:37;;;;;;;;;;;;;;;;;;4923789;28;20820;-65
2022/07/05 07:33:05;;;;;;;;;;;;;;;;;;4924572;28;19926;-64
2022/07/05 07:35:30;;;;;;;;;;;;;;;;;;4922123;28;20397;-66
2022/07/05 07:37:56;;;;;;;;;;;;;;;;;;4925374;28;20036;-65
2022/07/05 07:40:24;;;;;;;;;;;;;;;;;;4922780;28;19964;-65
2022/07/05 07:42:49;;;;;;;;;;;;;;;;;;4925571;28;20723;-65
2022/07/05 07:45:14;;;;;;;;;;;;;;;;;;4925856;28;19940;-66
2022/07/05 07:47:42;;;;;;;;;;;;;;;;;;4904337;29;19923;-65
2022/07/05 07:50:17;;;;;;;;;;;;;;;;;;4919419;28;19969;-65
2022/07/05 07:52:42;;;;;;;;;;;;;;;;;;4923108;28;19978;-66
2022/07/05 07:55:14;;;;;;;;;;;;;;;;;;4923417;28;20594;-64
2022/07/05 07:57:40;;;;;;;;;;;;;;;;;;4924484;28;19922;-65
2022/07/05 08:00:07;;;;;;;;;;;;;;;;;;4927095;28;19949;-64
2022/07/05 08:02:35;;;;;;;;;;;;;;;;;;4926647;28;19955;-64
2022/07/05 08:05:05;;;;;;;;;;;;;;;;;;4909129;29;19927;-65
2022/07/05 08:07:31;;;;;;;;;;;;;;;;;;4922969;29;19922;-66
2022/07/05 08:09:59;;;;;;;;;;;;;;;;;;4924495;28;19919;-65
2022/07/05 08:12:25;;;;;;;;;;;;;;;;;;4921610;28;20036;-66
2022/07/05 08:14:50;;;;;;;;;;;;;;;;;;4924975;28;19922;-67
2022/07/05 08:17:16;;;;;;;;;;;;;;;;;;4925244;28;19922;-64
2022/07/05 08:22:58;;;;;;;;;;;;;;;;;;4923259;28;19929;-65
2022/07/05 08:25:23;;;;;;;;;;;;;;;;;;4921389;28;19926;-65
2022/07/05 08:27:53;;;;;;;;;;;;;;;;;;4923250;28;19969;-65
2022/07/05 08:30:18;;;;;;;;;;;;;;;;;;4910636;29;20294;-66
2022/07/05 08:32:44;;;;;;;;;;;;;;;;;;4924887;28;19934;-65
2022/07/05 08:35:10;;;;;;;;;;;;;;;;;;4927221;28;19923;-67
2022/07/05 08:37:35;;;;;;;;;;;;;;;;;;4923631;28;19928;-66
2022/07/05 08:40:01;;;;;;;;;;;;;;;;;;4921982;28;20090;-66
2022/07/05 08:42:26;;;;;;;;;;;;;;;;;;4923938;28;19943;-66
2022/07/05 08:44:52;;;;;;;;;;;;;;;;;;4921792;28;19919;-66
2022/07/05 08:47:17;;;;;;;;;;;;;;;;;;4922085;28;19941;-65
2022/07/05 08:49:45;;;;;;;;;;;;;;;;;;4926875;28;19923;-67
2022/07/05 08:55:28;;;;;;;;;;;;;;;;;;4921577;28;19941;-69
2022/07/05 08:57:59;;;;;;;;;;;;;;;;;;4915745;28;20305;-67
2022/07/05 09:00:24;;;;;;;;;;;;;;;;;;4917038;28;19922;-67
2022/07/05 09:02:50;;;;;;;;;;;;;;;;;;4920635;28;19924;-69
2022/07/05 09:05:16;;;;;;;;;;;;;;;;;;4919643;28;20598;-70
2022/07/05 09:07:41;;;;;;;;;;;;;;;;;;4906143;28;19923;-65
2022/07/05 09:10:09;;;;;;;;;;;;;;;;;;4919036;28;19919;-66
2022/07/05 09:15:21;;;;;;;;;;;;;;;;;;4923635;28;19962;-68
2022/07/05 09:21:08;;;;;;;;;;;;;;;;;;4915022;28;19954;-67
2022/07/05 09:23:36;;;;;;;;;;;;;;;;;;4918691;28;20808;-68
2022/07/05 09:28:57;;;;;;;;;;;;;;;;;;4917981;28;19918;-68
2022/07/05 09:31:22;;;;;;;;;;;;;;;;;;4915316;28;19934;-68
2022/07/05 09:33:48;;;;;;;;;;;;;;;;;;4918631;28;20013;-68
2022/07/05 09:36:16;;;;;;;;;;;;;;;;;;4916766;28;19927;-67
2022/07/05 09:38:42;;;;;;;;;;;;;;;;;;4922153;28;19923;-68
2022/07/05 09:41:09;;;;;;;;;;;;;;;;;;4920434;28;19930;-70
2022/07/05 09:43:35;;;;;;;;;;;;;;;;;;4924652;28;19930;-66
2022/07/05 09:46:01;;;;;;;;;;;;;;;;;;4920437;28;19927;-65
2022/07/05 09:48:26;;;;;;;;;;;;;;;;;;4915410;28;19964;-66
2022/07/05 09:50:51;;;;;;;;;;;;;;;;;;4916979;28;19974;-69
2022/07/05 09:53:17;;;;;;;;;;;;;;;;;;4917692;28;19933;-66
2022/07/05 09:55:43;;;;;;;;;;;;;;;;;;4919503;28;19927;-67
2022/07/05 09:58:11;;;;;;;;;;;;;;;;;;4918879;28;20520;-69
2022/07/05 10:00:37;;;;;;;;;;;;;;;;;;4914058;28;19918;-72
2022/07/05 10:05:48;;;;;;;;;;;;;;;;;;4916938;28;20686;-67
2022/07/05 10:08:13;;;;;;;;;;;;;;;;;;4917445;28;20012;-68
2022/07/05 10:10:44;;;;;;;;;;;;;;;;;;4918817;28;19926;-66
2022/07/05 10:13:25;;;;;;;;;;;;;;;;;;4918452;28;19961;-69
2022/07/05 10:15:50;;;;;;;;;;;;;;;;;;4899255;28;19927;-67
2022/07/05 10:18:16;;;;;;;;;;;;;;;;;;4915224;28;20139;-69
2022/07/05 10:20:44;;;;;;;;;;;;;;;;;;4917270;28;20362;-71
2022/07/05 10:23:09;;;;;;;;;;;;;;;;;;4913129;28;19923;-66
2022/07/05 10:25:34;;;;;;;;;;;;;;;;;;4916723;28;19934;-65
2022/07/05 10:30:50;;;;;;;;;;;;;;;;;;4922412;28;20695;-71
2022/07/05 10:33:31;;;;;;;;;;;;;;;;;;4916938;28;20045;-72
2022/07/05 10:35:56;;;;;;;;;;;;;;;;;;4909148;28;19927;-66
2022/07/05 10:41:57;;;;;;;;;;;;;;;;;;4918225;28;21878;-64
2022/07/05 10:44:32;;;;;;;;;;;;;;;;;;4914597;28;20948;-63
2022/07/05 10:46:57;;;;;;;;;;;;;;;;;;4914777;28;20646;-65
2022/07/05 10:49:22;;;;;;;;;;;;;;;;;;4899482;28;19922;-68
2022/07/05 10:51:49;;;;;;;;;;;;;;;;;;4916973;28;20192;-69
2022/07/05 10:54:26;;;;;;;;;;;;;;;;;;4920357;28;19953;-68
2022/07/05 10:56:57;;;;;;;;;;;;;;;;;;4922337;28;19973;-73
2022/07/05 10:59:23;;;;;;;;;;;;;;;;;;4920609;28;20001;-68
2022/07/05 11:04:40;;;;;;;;;;;;;;;;;;4920899;28;20400;-68
2022/07/05 11:10:24;;;;;;;;;;;;;;;;;;4926240;28;19929;-70
2022/07/05 11:12:52;;;;;;;;;;;;;;;;;;4929596;28;19922;-70
2022/07/05 11:15:17;;;;;;;;;;;;;;;;;;4922946;28;19933;-62
2022/07/05 11:17:44;;;;;;;;;;;;;;;;;;4928193;28;20611;-67
2022/07/05 11:20:10;;;;;;;;;;;;;;;;;;4920719;28;19918;-64
2022/07/05 11:22:35;;;;;;;;;;;;;;;;;;4912584;28;19923;-68
2022/07/05 11:25:01;;;;;;;;;;;;;;;;;;4921514;28;20080;-69
2022/07/05 11:30:45;;;;;;;;;;;;;;;;;;4922567;28;19925;-69
2022/07/05 11:36:32;;;;;;;;;;;;;;;;;;4923051;28;20409;-71
2022/07/05 11:38:57;;;;;;;;;;;;;;;;;;4908088;28;20547;-69
2022/07/05 11:41:25;;;;;;;;;;;;;;;;;;4921577;28;19922;-70
2022/07/05 11:47:09;;;;;;;;;;;;;;;;;;4928771;28;19982;-71
2022/07/05 11:49:34;;;;;;;;;;;;;;;;;;4944461;28;20001;-68
2022/07/05 11:52:20;;;;;;;;;;;;;;;;;;4926283;28;19927;-68
2022/07/05 11:54:46;;;;;;;;;;;;;;;;;;4926375;28;19922;-74
2022/07/05 11:57:11;;;;;;;;;;;;;;;;;;4924350;28;19945;-66
2022/07/05 12:02:54;;;;;;;;;;;;;;;;;;4920825;28;20039;-64
2022/07/05 12:05:23;;;;;;;;;;;;;;;;;;4921829;28;19934;-64
2022/07/05 12:07:51;;;;;;;;;;;;;;;;;;4918396;28;20424;-68
2022/07/05 12:13:33;;;;;;;;;;;;;;;;;;4917299;28;19945;-67
2022/07/05 12:15:58;;;;;;;;;;;;;;;;;;4901176;28;19954;-68
2022/07/05 12:18:24;;;;;;;;;;;;;;;;;;4917295;28;22142;-70
2022/07/05 12:20:49;;;;;;;;;;;;;;;;;;4915700;28;19982;-69
2022/07/05 12:23:17;;;;;;;;;;;;;;;;;;4904156;29;21782;-69
2022/07/05 12:25:43;;;;;;;;;;;;;;;;;;4921645;28;19926;-68
2022/07/05 12:28:10;;;;;;;;;;;;;;;;;;4916880;28;19957;-68
2022/07/05 12:30:36;;;;;;;;;;;;;;;;;;4932890;28;19928;-68
2022/07/05 12:33:02;;;;;;;;;;;;;;;;;;4920725;28;19961;-66
2022/07/05 12:35:28;;;;;;;;;;;;;;;;;;4925086;28;19922;-68
2022/07/05 12:37:54;;;;;;;;;;;;;;;;;;4919861;28;19919;-66
2022/07/05 12:40:20;;;;;;;;;;;;;;;;;;4924660;28;20290;-70
2022/07/05 12:46:02;;;;;;;;;;;;;;;;;;4913493;28;20044;-68
2022/07/05 12:48:30;;;;;;;;;;;;;;;;;;4920145;28;19919;-70
2022/07/05 12:50:55;;;;;;;;;;;;;;;;;;4906536;29;21621;-68
2022/07/05 12:59:57;;;;;;;;;;;;;;;;;;4918482;28;19925;-67
2022/07/05 13:02:23;;;;;;;;;;;;;;;;;;4917050;28;19938;-69
2022/07/05 13:04:49;;;;;;;;;;;;;;;;;;4913306;28;19922;-70
2022/07/05 13:10:34;;;;;;;;;;;;;;;;;;4914734;28;20923;-63
2022/07/05 13:12:59;;;;;;;;;;;;;;;;;;4914929;28;19923;-66
2022/07/05 13:15:25;;;;;;;;;;;;;;;;;;4912695;28;19925;-66
2022/07/05 13:17:53;;;;;;;;;;;;;;;;;;4915698;28;19922;-69
2022/07/05 13:20:20;;;;;;;;;;;;;;;;;;4915319;28;19929;-68
2022/07/05 13:22:45;;;;;;;;;;;;;;;;;;4917198;28;19958;-68
2022/07/05 13:25:11;;;;;;;;;;;;;;;;;;4919216;28;19937;-68
2022/07/05 13:30:37;;;;;;;;;;;;;;;;;;4933191;28;19922;-69
2022/07/05 13:33:05;;;;;;;;;;;;;;;;;;4918218;28;20007;-69
2022/07/05 13:35:37;;;;;;;;;;;;;;;;;;4902536;29;20317;-66
2022/07/05 13:40:51;;;;;;;;;;;;;;;;;;4921148;28;19922;-66
2022/07/05 13:43:17;;;;;;;;;;;;;;;;;;4924535;28;19934;-69
2022/07/05 13:45:42;;;;;;;;;;;;;;;;;;4910671;29;20009;-69
2022/07/05 13:48:08;;;;;;;;;;;;;;;;;;4925667;28;20032;-67
2022/07/05 13:50:35;;;;;;;;;;;;;;;;;;4924017;28;19922;-68
2022/07/05 13:53:01;;;;;;;;;;;;;;;;;;4925047;28;19930;-65
2022/07/05 13:58:43;;;;;;;;;;;;;;;;;;4926132;28;19924;-67
2022/07/05 14:01:08;;;;;;;;;;;;;;;;;;4923392;28;19923;-68
2022/07/05 14:03:34;;;;;;;;;;;;;;;;;;4908607;29;19923;-68
2022/07/05 14:06:00;;;;;;;;;;;;;;;;;;4936463;28;20052;-66
2022/07/05 14:08:26;;;;;;;;;;;;;;;;;;4922612;28;19923;-70
2022/07/05 14:10:52;;;;;;;;;;;;;;;;;;4920717;28;19927;-68
2022/07/05 14:13:20;;;;;;;;;;;;;;;;;;4924228;28;19965;-68
2022/07/05 14:22:18;;;;;;;;;;;;;;;;;;4923047;29;19965;-67
2022/07/05 14:24:46;;;;;;;;;;;;;;;;;;4920926;28;19923;-70
2022/07/05 14:27:11;;;;;;;;;;;;;;;;;;4915229;28;19933;-72
2022/07/05 14:29:37;;;;;;;;;;;;;;;;;;4920070;28;19926;-67
2022/07/05 14:32:03;;;;;;;;;;;;;;;;;;4904282;29;19926;-72
2022/07/05 14:34:28;;;;;;;;;;;;;;;;;;4906215;29;19922;-67
2022/07/05 14:36:56;;;;;;;;;;;;;;;;;;4920944;28;19922;-67
2022/07/05 14:39:24;;;;;;;;;;;;;;;;;;4919176;28;19945;-65
2022/07/05 14:41:49;;;;;;;;;;;;;;;;;;4918284;28;22103;-67
2022/07/05 14:47:20;;;;;;;;;;;;;;;;;;4915827;28;19926;-67
2022/07/05 14:56:18;;;;;;;;;;;;;;;;;;4917291;28;19933;-70
2022/07/05 14:58:48;;;;;;;;;;;;;;;;;;4918900;28;19969;-67
2022/07/05 15:01:17;;;;;;;;;;;;;;;;;;4913883;28;20562;-66
2022/07/05 15:03:42;;;;;;;;;;;;;;;;;;4911504;28;19922;-66
2022/07/05 15:09:26;;;;;;;;;;;;;;;;;;4916583;28;20080;-66
2022/07/05 15:11:52;;;;;;;;;;;;;;;;;;4919419;28;20593;-67
2022/07/05 15:14:17;;;;;;;;;;;;;;;;;;4914835;28;19923;-68
2022/07/05 15:16:58;;;;;;;;;;;;;;;;;;4927383;28;19961;-70
2022/07/05 15:22:16;;;;;;;;;;;;;;;;;;4925460;28;19962;-67
2022/07/05 15:24:41;;;;;;;;;;;;;;;;;;4904390;29;19919;-66
2022/07/05 15:27:09;;;;;;;;;;;;;;;;;;4917060;28;20073;-65
2022/07/05 15:29:47;;;;;;;;;;;;;;;;;;4920333;28;20992;-69
2022/07/05 15:41:52;;;;;;;;;;;;;;;;;;4921855;28;19965;-67
2022/07/05 15:44:17;;;;;;;;;;;;;;;;;;4920048;28;20448;-67
2022/07/05 15:47:02;;;;;;;;;;;;;;;;;;4903866;29;20025;-65
2022/07/05 15:49:30;;;;;;;;;;;;;;;;;;4920056;28;19922;-66
2022/07/05 15:51:55;;;;;;;;;;;;;;;;;;4924621;28;20651;-70
2022/07/05 15:54:24;;;;;;;;;;;;;;;;;;4907410;28;19919;-68
2022/07/05 15:56:52;;;;;;;;;;;;;;;;;;4923881;28;19918;-68
2022/07/05 15:59:17;;;;;;;;;;;;;;;;;;4940293;28;19922;-63
2022/07/05 16:04:59;;;;;;;;;;;;;;;;;;4927382;28;20837;-67
2022/07/05 16:07:24;;;;;;;;;;;;;;;;;;4927605;28;19922;-65
2022/07/05 16:09:58;;;;;;;;;;;;;;;;;;4924172;28;20374;-65
2022/07/05 16:12:25;;;;;;;;;;;;;;;;;;4921957;28;20035;-68
2022/07/05 16:14:59;;;;;;;;;;;;;;;;;;4917955;28;19922;-69
2022/07/05 16:23:58;;;;;;;;;;;;;;;;;;4925560;28;20049;-66
2022/07/05 16:29:41;;;;;;;;;;;;;;;;;;4922848;28;20025;-65
2022/07/05 16:35:23;;;;;;;;;;;;;;;;;;4919123;28;19941;-70
2022/07/05 16:37:51;;;;;;;;;;;;;;;;;;4916852;28;19967;-65
2022/07/05 16:40:19;;;;;;;;;;;;;;;;;;4935245;28;19919;-69
2022/07/05 16:42:44;;;;;;;;;;;;;;;;;;4917807;28;19926;-69
2022/07/05 16:45:10;;;;;;;;;;;;;;;;;;4904643;29;20239;-68
2022/07/05 16:47:38;;;;;;;;;;;;;;;;;;4905843;29;20037;-66
2022/07/05 16:50:03;;;;;;;;;;;;;;;;;;4917941;28;19922;-67
2022/07/05 16:55:45;;;;;;;;;;;;;;;;;;4922045;28;20742;-68
2022/07/05 16:58:13;;;;;;;;;;;;;;;;;;4921253;29;19919;-65
2022/07/05 17:00:38;;;;;;;;;;;;;;;;;;4919153;28;20017;-64
2022/07/05 17:03:04;;;;;;;;;;;;;;;;;;4915143;28;20903;-69
2022/07/05 17:05:29;;;;;;;;;;;;;;;;;;4905254;29;20342;-65
2022/07/05 17:07:55;;;;;;;;;;;;;;;;;;4922616;29;20131;-68
2022/07/05 17:10:21;;;;;;;;;;;;;;;;;;4921921;28;19966;-69
2022/07/05 17:12:46;;;;;;;;;;;;;;;;;;4903486;28;20478;-64
2022/07/05 17:15:14;;;;;;;;;;;;;;;;;;4922102;28;20021;-64
2022/07/05 17:17:42;;;;;;;;;;;;;;;;;;4904531;28;19918;-65
2022/07/05 17:20:08;;;;;;;;;;;;;;;;;;4913232;28;20049;-65
2022/07/05 17:22:53;;;;;;;;;;;;;;;;;;4917772;28;19930;-69
2022/07/05 17:25:19;;;;;;;;;;;;;;;;;;4922724;28;19926;-67
2022/07/05 17:27:44;;;;;;;;;;;;;;;;;;4922766;28;19919;-65
2022/07/05 17:30:12;;;;;;;;;;;;;;;;;;4920767;28;20095;-65
2022/07/05 17:32:37;;;;;;;;;;;;;;;;;;4898435;29;19930;-67
2022/07/05 17:35:03;;;;;;;;;;;;;;;;;;4910230;28;21491;-67
2022/07/05 17:40:45;;;;;;;;;;;;;;;;;;4921951;28;20291;-67
2022/07/05 17:43:13;;;;;;;;;;;;;;;;;;4917635;28;19926;-71
2022/07/05 17:45:39;;;;;;;;;;;;;;;;;;4918788;29;19926;-71
2022/07/05 17:48:16;;;;;;;;;;;;;;;;;;4913417;28;20611;-64
2022/07/05 17:50:45;;;;;;;;;;;;;;;;;;4918358;28;19923;-68
2022/07/05 17:53:12;;;;;;;;;;;;;;;;;;4921025;28;19937;-68
2022/07/05 17:55:38;;;;;;;;;;;;;;;;;;4924769;28;19922;-66
2022/07/05 17:58:05;;;;;;;;;;;;;;;;;;4918794;28;20223;-68
2022/07/05 18:00:31;;;;;;;;;;;;;;;;;;4914877;28;20022;-72
2022/07/05 18:02:56;;;;;;;;;;;;;;;;;;4914943;28;20397;-71
2022/07/05 18:08:53;;;;;;;;;;;;;;;;;;4921258;28;19928;-71
2022/07/05 18:11:19;;;;;;;;;;;;;;;;;;4919727;28;20017;-71
2022/07/05 18:13:44;;;;;;;;;;;;;;;;;;4918290;28;20004;-68
2022/07/05 18:16:10;;;;;;;;;;;;;;;;;;4920535;28;19969;-71
2022/07/05 18:18:35;;;;;;;;;;;;;;;;;;4923213;28;19926;-68
2022/07/05 18:21:18;;;;;;;;;;;;;;;;;;4914647;28;19930;-64
2022/07/05 18:23:44;;;;;;;;;;;;;;;;;;4917401;28;19925;-70
2022/07/05 18:32:43;;;;;;;;;;;;;;;;;;4918281;28;20031;-68
2022/07/05 18:35:10;;;;;;;;;;;;;;;;;;4924702;28;19981;-68
2022/07/05 18:37:38;;;;;;;;;;;;;;;;;;4921202;28;19937;-70
2022/07/05 18:40:05;;;;;;;;;;;;;;;;;;4922063;28;20037;-70
2022/07/05 18:42:49;;;;;;;;;;;;;;;;;;4904498;29;20845;-70
2022/07/05 18:48:34;;;;;;;;;;;;;;;;;;4924821;29;19945;-68
2022/07/05 18:51:00;;;;;;;;;;;;;;;;;;4920181;28;19931;-69
2022/07/05 18:53:25;;;;;;;;;;;;;;;;;;4915437;28;20497;-68
2022/07/05 18:55:51;;;;;;;;;;;;;;;;;;4919555;28;19922;-68
2022/07/05 18:58:20;;;;;;;;;;;;;;;;;;4914533;28;20909;-69
2022/07/05 19:00:46;;;;;;;;;;;;;;;;;;4913037;28;19938;-68
2022/07/05 19:03:11;;;;;;;;;;;;;;;;;;4910914;28;19918;-67
2022/07/05 19:05:37;;;;;;;;;;;;;;;;;;4916698;28;19926;-63
2022/07/05 19:13:44;;;;;;;;;;;;;;;;;;4923027;29;19929;-66
2022/07/05 19:16:12;;;;;;;;;;;;;;;;;;4906379;28;20001;-68
2022/07/05 19:18:37;;;;;;;;;;;;;;;;;;4921930;28;20017;-68
2022/07/05 19:21:03;;;;;;;;;;;;;;;;;;4921255;28;19929;-67
2022/07/05 19:23:28;;;;;;;;;;;;;;;;;;4918590;28;19929;-67
2022/07/05 19:25:56;;;;;;;;;;;;;;;;;;4909274;28;20063;-68
2022/07/05 19:28:23;;;;;;;;;;;;;;;;;;4926498;28;19919;-67
2022/07/05 19:30:48;;;;;;;;;;;;;;;;;;4932685;28;20629;-67
2022/07/05 19:33:16;;;;;;;;;;;;;;;;;;4920245;28;19974;-67
2022/07/05 19:35:42;;;;;;;;;;;;;;;;;;4920235;28;20641;-68
2022/07/05 19:38:08;;;;;;;;;;;;;;;;;;4928048;28;19929;-67
2022/07/05 19:40:33;;;;;;;;;;;;;;;;;;4921807;28;19922;-69
2022/07/05 19:42:59;;;;;;;;;;;;;;;;;;4914247;28;19969;-69
2022/07/05 19:45:26;;;;;;;;;;;;;;;;;;4922244;28;19954;-66
2022/07/05 19:50:43;;;;;;;;;;;;;;;;;;4919263;28;20810;-68
2022/07/05 19:53:08;;;;;;;;;;;;;;;;;;4921437;28;19965;-65
2022/07/05 19:55:33;;;;;;;;;;;;;;;;;;4905217;28;20453;-68
2022/07/05 19:57:59;;;;;;;;;;;;;;;;;;4923180;28;20030;-67